sensor_id;sensor_type;location;lat;lon;timestamp;P1;P2;P0
68841;PMS5003;55849;48.482;2.332;2022-12-10T00:00:37;30.00;25.75;17.50
68841;PMS5003;55849;48.482;2.332;2022-12-10T00:03:39;29.50;26.00;19.00
68841;PMS5003;55849;48.482;2.332;2022-12-10T00:06:41;32.75;26.25;18.00
68841;PMS5003;55849;48.482;2.332;2022-12-10T00:09:43;39.50;28.00;19.00
68841;PMS5003;55849;48.482;2.332;2022-12-10T00:12:46;30.25;25.50;17.00
68841;PMS5003;55849;48.482;2.332;2022-12-10T00:15:48;34.75;27.75;18.50
68841;PMS5003;55849;48.482;2.332;2022-12-10T00:18:50;29.00;26.00;19.00
68841;PMS5003;55849;48.482;2.332;2022-12-10T00:21:54;30.25;27.50;17.00
68841;PMS5003;55849;48.482;2.332;2022-12-10T00:24:56;28.50;25.25;18.00
68841;PMS5003;55849;48.482;2.332;2022-12-10T00:27:59;33.00;28.50;19.00
68841;PMS5003;55849;48.482;2.332;2022-12-10T00:31:02;27.50;23.00;14.00
68841;PMS5003;55849;48.482;2.332;2022-12-10T00:34:05;36.00;31.75;24.00
68841;PMS5003;55849;48.482;2.332;2022-12-10T00:37:08;44.00;35.00;23.00
68841;PMS5003;55849;48.482;2.332;2022-12-10T00:40:10;41.50;36.00;22.75
68841;PMS5003;55849;48.482;2.332;2022-12-10T00:43:14;50.00;38.50;26.75
68841;PMS5003;55849;48.482;2.332;2022-12-10T00:46:16;41.25;33.25;21.75
68841;PMS5003;55849;48.482;2.332;2022-12-10T00:49:19;43.50;37.75;26.50
68841;PMS5003;55849;48.482;2.332;2022-12-10T00:52:23;49.00;41.00;27.00
68841;PMS5003;55849;48.482;2.332;2022-12-10T00:55:24;33.00;30.25;20.00
68841;PMS5003;55849;48.482;2.332;2022-12-10T00:58:28;42.75;38.25;24.00
68841;PMS5003;55849;48.482;2.332;2022-12-10T01:01:31;39.25;38.50;24.00
68841;PMS5003;55849;48.482;2.332;2022-12-10T01:04:34;38.50;26.75;16.00
68841;PMS5003;55849;48.482;2.332;2022-12-10T01:07:36;34.00;28.00;18.75
68841;PMS5003;55849;48.482;2.332;2022-12-10T01:10:38;48.75;39.00;22.50
68841;PMS5003;55849;48.482;2.332;2022-12-10T01:13:41;53.75;45.25;30.25
68841;PMS5003;55849;48.482;2.332;2022-12-10T01:16:44;58.75;44.00;29.00
68841;PMS5003;55849;48.482;2.332;2022-12-10T01:19:46;41.75;39.75;25.50
68841;PMS5003;55849;48.482;2.332;2022-12-10T01:22:48;40.50;33.25;22.25
68841;PMS5003;55849;48.482;2.332;2022-12-10T01:25:49;27.50;25.00;17.00
68841;PMS5003;55849;48.482;2.332;2022-12-10T01:28:53;30.75;26.00;18.00
68841;PMS5003;55849;48.482;2.332;2022-12-10T01:31:56;30.00;27.00;15.00
68841;PMS5003;55849;48.482;2.332;2022-12-10T01:34:58;33.50;24.75;16.00
68841;PMS5003;55849;48.482;2.332;2022-12-10T01:38:00;33.25;24.25;15.75
68841;PMS5003;55849;48.482;2.332;2022-12-10T01:41:02;24.00;22.25;11.50
68841;PMS5003;55849;48.482;2.332;2022-12-10T01:47:46;42.25;33.00;24.00
68841;PMS5003;55849;48.482;2.332;2022-12-10T01:50:47;30.75;24.00;13.50
68841;PMS5003;55849;48.482;2.332;2022-12-10T01:53:49;33.25;32.00;21.00
68841;PMS5003;55849;48.482;2.332;2022-12-10T01:56:54;30.25;29.25;19.50
68841;PMS5003;55849;48.482;2.332;2022-12-10T02:00:02;35.00;31.50;16.25
68841;PMS5003;55849;48.482;2.332;2022-12-10T02:03:07;36.25;32.50;21.75
68841;PMS5003;55849;48.482;2.332;2022-12-10T02:06:22;35.75;27.25;15.50
68841;PMS5003;55849;48.482;2.332;2022-12-10T02:09:33;31.75;26.25;19.25
68841;PMS5003;55849;48.482;2.332;2022-12-10T02:12:41;35.50;32.25;19.00
68841;PMS5003;55849;48.482;2.332;2022-12-10T02:15:50;47.50;34.00;23.00
68841;PMS5003;55849;48.482;2.332;2022-12-10T02:18:57;37.75;29.50;19.75
68841;PMS5003;55849;48.482;2.332;2022-12-10T02:22:04;24.25;22.25;11.00
68841;PMS5003;55849;48.482;2.332;2022-12-10T02:25:08;28.50;25.00;18.75
68841;PMS5003;55849;48.482;2.332;2022-12-10T02:28:17;33.00;28.00;20.00
68841;PMS5003;55849;48.482;2.332;2022-12-10T02:31:26;23.00;22.00;16.00
68841;PMS5003;55849;48.482;2.332;2022-12-10T02:34:38;44.50;34.00;24.25
68841;PMS5003;55849;48.482;2.332;2022-12-10T02:37:45;52.00;36.00;25.00
68841;PMS5003;55849;48.482;2.332;2022-12-10T02:40:52;38.25;28.00;22.50
68841;PMS5003;55849;48.482;2.332;2022-12-10T02:43:58;39.75;30.50;21.75
68841;PMS5003;55849;48.482;2.332;2022-12-10T02:47:04;46.75;34.00;22.50
68841;PMS5003;55849;48.482;2.332;2022-12-10T02:50:07;41.00;35.25;26.00
68841;PMS5003;55849;48.482;2.332;2022-12-10T02:53:11;41.75;38.00;22.00
68841;PMS5003;55849;48.482;2.332;2022-12-10T02:56:14;44.25;37.75;27.00
68841;PMS5003;55849;48.482;2.332;2022-12-10T02:59:24;42.25;37.75;24.75
68841;PMS5003;55849;48.482;2.332;2022-12-10T03:02:38;44.00;31.50;21.50
68841;PMS5003;55849;48.482;2.332;2022-12-10T03:05:49;34.50;32.50;20.00
68841;PMS5003;55849;48.482;2.332;2022-12-10T03:09:01;45.00;37.50;24.25
68841;PMS5003;55849;48.482;2.332;2022-12-10T03:12:08;37.25;31.50;21.00
68841;PMS5003;55849;48.482;2.332;2022-12-10T03:15:18;37.00;32.50;21.00
68841;PMS5003;55849;48.482;2.332;2022-12-10T03:18:23;39.50;30.50;21.50
68841;PMS5003;55849;48.482;2.332;2022-12-10T03:21:27;34.25;29.00;17.50
68841;PMS5003;55849;48.482;2.332;2022-12-10T03:24:32;33.00;29.50;20.00
68841;PMS5003;55849;48.482;2.332;2022-12-10T03:27:37;33.00;28.50;19.50
68841;PMS5003;55849;48.482;2.332;2022-12-10T03:30:42;26.75;24.75;17.50
68841;PMS5003;55849;48.482;2.332;2022-12-10T03:33:46;35.50;28.50;19.50
68841;PMS5003;55849;48.482;2.332;2022-12-10T03:36:49;29.75;26.50;18.75
68841;PMS5003;55849;48.482;2.332;2022-12-10T03:39:52;39.50;30.25;21.00
68841;PMS5003;55849;48.482;2.332;2022-12-10T03:42:54;36.25;31.00;20.00
68841;PMS5003;55849;48.482;2.332;2022-12-10T03:45:55;26.50;24.50;17.50
68841;PMS5003;55849;48.482;2.332;2022-12-10T03:48:59;30.25;29.00;19.50
68841;PMS5003;55849;48.482;2.332;2022-12-10T03:52:02;39.50;33.25;21.50
68841;PMS5003;55849;48.482;2.332;2022-12-10T03:55:04;36.25;26.25;18.00
68841;PMS5003;55849;48.482;2.332;2022-12-10T03:58:07;38.00;27.25;17.75
68841;PMS5003;55849;48.482;2.332;2022-12-10T04:01:08;39.75;29.00;20.50
68841;PMS5003;55849;48.482;2.332;2022-12-10T04:04:12;36.00;28.00;19.50
68841;PMS5003;55849;48.482;2.332;2022-12-10T04:07:13;42.25;29.00;21.00
68841;PMS5003;55849;48.482;2.332;2022-12-10T04:10:15;36.75;31.00;19.50
68841;PMS5003;55849;48.482;2.332;2022-12-10T04:13:17;27.75;27.00;18.75
68841;PMS5003;55849;48.482;2.332;2022-12-10T04:16:36;39.75;36.25;21.75
68841;PMS5003;55849;48.482;2.332;2022-12-10T04:19:39;43.50;33.00;21.25
68841;PMS5003;55849;48.482;2.332;2022-12-10T04:22:42;38.50;31.75;18.75
68841;PMS5003;55849;48.482;2.332;2022-12-10T04:26:01;37.00;25.50;18.00
68841;PMS5003;55849;48.482;2.332;2022-12-10T04:29:21;41.00;35.00;25.00
68841;PMS5003;55849;48.482;2.332;2022-12-10T04:32:24;36.00;28.50;20.00
68841;PMS5003;55849;48.482;2.332;2022-12-10T04:35:29;37.50;33.00;18.75
68841;PMS5003;55849;48.482;2.332;2022-12-10T04:38:30;34.75;30.25;21.00
68841;PMS5003;55849;48.482;2.332;2022-12-10T04:41:32;29.50;26.25;20.25
68841;PMS5003;55849;48.482;2.332;2022-12-10T04:44:34;37.50;27.75;20.00
68841;PMS5003;55849;48.482;2.332;2022-12-10T04:47:36;33.50;28.25;17.25
68841;PMS5003;55849;48.482;2.332;2022-12-10T04:50:39;43.50;33.25;19.50
68841;PMS5003;55849;48.482;2.332;2022-12-10T04:53:41;36.25;31.50;21.00
68841;PMS5003;55849;48.482;2.332;2022-12-10T04:56:43;37.00;29.50;17.00
68841;PMS5003;55849;48.482;2.332;2022-12-10T04:59:44;43.75;35.50;21.75
68841;PMS5003;55849;48.482;2.332;2022-12-10T05:02:47;36.25;27.25;16.25
68841;PMS5003;55849;48.482;2.332;2022-12-10T05:05:51;35.25;31.00;19.50
68841;PMS5003;55849;48.482;2.332;2022-12-10T05:08:53;34.75;29.25;21.50
68841;PMS5003;55849;48.482;2.332;2022-12-10T05:11:54;32.50;28.00;19.50
68841;PMS5003;55849;48.482;2.332;2022-12-10T05:14:56;38.50;33.50;19.00
68841;PMS5003;55849;48.482;2.332;2022-12-10T05:17:58;36.75;33.25;20.00
68841;PMS5003;55849;48.482;2.332;2022-12-10T05:21:01;29.25;26.00;18.00
68841;PMS5003;55849;48.482;2.332;2022-12-10T05:24:04;35.50;26.50;17.50
68841;PMS5003;55849;48.482;2.332;2022-12-10T05:27:05;28.50;21.00;11.00
68841;PMS5003;55849;48.482;2.332;2022-12-10T05:30:07;25.00;21.75;14.50
68841;PMS5003;55849;48.482;2.332;2022-12-10T05:33:10;25.75;21.00;14.00
68841;PMS5003;55849;48.482;2.332;2022-12-10T05:36:14;29.00;21.75;14.00
68841;PMS5003;55849;48.482;2.332;2022-12-10T05:39:17;20.75;20.00;12.25
68841;PMS5003;55849;48.482;2.332;2022-12-10T05:42:19;20.25;16.00;9.00
68841;PMS5003;55849;48.482;2.332;2022-12-10T05:45:22;34.25;22.50;15.00
68841;PMS5003;55849;48.482;2.332;2022-12-10T05:48:24;16.75;16.00;10.00
68841;PMS5003;55849;48.482;2.332;2022-12-10T05:51:27;29.25;18.00;11.50
68841;PMS5003;55849;48.482;2.332;2022-12-10T05:54:30;19.75;18.50;10.00
68841;PMS5003;55849;48.482;2.332;2022-12-10T05:57:32;14.00;11.50;4.00
68841;PMS5003;55849;48.482;2.332;2022-12-10T06:00:34;19.25;17.50;10.00
68841;PMS5003;55849;48.482;2.332;2022-12-10T06:03:36;17.50;14.00;7.75
68841;PMS5003;55849;48.482;2.332;2022-12-10T06:06:39;19.75;14.75;9.00
68841;PMS5003;55849;48.482;2.332;2022-12-10T06:09:42;27.75;18.75;12.00
68841;PMS5003;55849;48.482;2.332;2022-12-10T06:12:44;20.50;16.75;10.00
68841;PMS5003;55849;48.482;2.332;2022-12-10T06:15:45;22.00;17.00;9.50
68841;PMS5003;55849;48.482;2.332;2022-12-10T06:18:47;12.75;10.50;7.50
68841;PMS5003;55849;48.482;2.332;2022-12-10T06:21:50;20.50;17.00;10.00
68841;PMS5003;55849;48.482;2.332;2022-12-10T06:24:52;14.00;10.50;6.00
68841;PMS5003;55849;48.482;2.332;2022-12-10T06:27:53;14.50;12.50;6.25
68841;PMS5003;55849;48.482;2.332;2022-12-10T06:30:57;18.50;12.75;7.00
68841;PMS5003;55849;48.482;2.332;2022-12-10T06:33:59;10.00;9.75;6.50
68841;PMS5003;55849;48.482;2.332;2022-12-10T06:37:02;26.25;14.25;9.50
68841;PMS5003;55849;48.482;2.332;2022-12-10T06:40:04;18.00;16.00;10.00
68841;PMS5003;55849;48.482;2.332;2022-12-10T06:43:07;17.50;14.75;9.00
68841;PMS5003;55849;48.482;2.332;2022-12-10T06:46:10;15.75;14.00;9.75
68841;PMS5003;55849;48.482;2.332;2022-12-10T06:49:13;19.00;16.25;9.00
68841;PMS5003;55849;48.482;2.332;2022-12-10T06:52:16;16.75;10.50;5.50
68841;PMS5003;55849;48.482;2.332;2022-12-10T06:55:18;12.25;9.50;4.50
68841;PMS5003;55849;48.482;2.332;2022-12-10T06:58:19;18.00;13.00;7.00
68841;PMS5003;55849;48.482;2.332;2022-12-10T07:01:21;17.75;14.00;8.00
68841;PMS5003;55849;48.482;2.332;2022-12-10T07:04:26;19.25;12.00;6.25
68841;PMS5003;55849;48.482;2.332;2022-12-10T07:07:29;14.00;12.25;7.00
68841;PMS5003;55849;48.482;2.332;2022-12-10T07:10:30;15.00;15.00;8.50
68841;PMS5003;55849;48.482;2.332;2022-12-10T07:13:32;17.25;11.25;7.25
68841;PMS5003;55849;48.482;2.332;2022-12-10T07:16:34;17.75;10.00;7.50
68841;PMS5003;55849;48.482;2.332;2022-12-10T07:19:36;15.00;13.50;9.00
68841;PMS5003;55849;48.482;2.332;2022-12-10T07:22:39;18.25;16.50;9.00
68841;PMS5003;55849;48.482;2.332;2022-12-10T07:25:41;15.50;14.50;9.00
68841;PMS5003;55849;48.482;2.332;2022-12-10T07:28:42;14.00;14.00;9.50
68841;PMS5003;55849;48.482;2.332;2022-12-10T07:31:44;18.00;18.00;10.00
68841;PMS5003;55849;48.482;2.332;2022-12-10T07:34:47;12.75;9.25;6.50
68841;PMS5003;55849;48.482;2.332;2022-12-10T07:37:50;15.50;9.25;6.00
68841;PMS5003;55849;48.482;2.332;2022-12-10T07:40:52;15.50;12.50;9.25
68841;PMS5003;55849;48.482;2.332;2022-12-10T07:43:54;18.00;14.00;6.25
68841;PMS5003;55849;48.482;2.332;2022-12-10T07:46:55;16.00;12.50;9.50
68841;PMS5003;55849;48.482;2.332;2022-12-10T07:49:57;12.50;8.00;7.00
68841;PMS5003;55849;48.482;2.332;2022-12-10T07:53:00;13.25;10.25;5.50
68841;PMS5003;55849;48.482;2.332;2022-12-10T07:56:02;15.50;12.50;6.75
68841;PMS5003;55849;48.482;2.332;2022-12-10T07:59:04;18.50;11.00;7.00
68841;PMS5003;55849;48.482;2.332;2022-12-10T08:02:07;12.50;9.50;6.25
68841;PMS5003;55849;48.482;2.332;2022-12-10T08:05:09;11.75;10.75;7.00
68841;PMS5003;55849;48.482;2.332;2022-12-10T08:08:12;20.50;14.00;6.25
68841;PMS5003;55849;48.482;2.332;2022-12-10T08:11:14;16.25;11.75;7.00
68841;PMS5003;55849;48.482;2.332;2022-12-10T08:14:17;17.50;10.00;6.00
68841;PMS5003;55849;48.482;2.332;2022-12-10T08:17:19;17.75;12.00;7.00
68841;PMS5003;55849;48.482;2.332;2022-12-10T08:20:21;12.25;11.75;4.50
68841;PMS5003;55849;48.482;2.332;2022-12-10T08:23:24;13.00;11.50;7.00
68841;PMS5003;55849;48.482;2.332;2022-12-10T08:26:27;11.75;11.75;7.00
68841;PMS5003;55849;48.482;2.332;2022-12-10T08:29:30;17.00;17.00;12.00
68841;PMS5003;55849;48.482;2.332;2022-12-10T08:32:32;19.50;12.75;8.50
68841;PMS5003;55849;48.482;2.332;2022-12-10T08:35:33;22.00;17.00;9.25
68841;PMS5003;55849;48.482;2.332;2022-12-10T08:38:36;17.25;16.00;9.00
68841;PMS5003;55849;48.482;2.332;2022-12-10T08:41:38;19.50;11.50;7.00
68841;PMS5003;55849;48.482;2.332;2022-12-10T08:44:39;17.50;10.00;6.75
68841;PMS5003;55849;48.482;2.332;2022-12-10T08:47:41;11.75;8.50;3.75
68841;PMS5003;55849;48.482;2.332;2022-12-10T08:50:43;16.00;12.00;8.00
68841;PMS5003;55849;48.482;2.332;2022-12-10T08:53:47;24.50;20.75;12.75
68841;PMS5003;55849;48.482;2.332;2022-12-10T08:56:49;14.00;12.50;7.00
68841;PMS5003;55849;48.482;2.332;2022-12-10T08:59:50;26.50;23.50;13.00
68841;PMS5003;55849;48.482;2.332;2022-12-10T09:02:52;28.75;25.00;17.50
68841;PMS5003;55849;48.482;2.332;2022-12-10T09:05:54;40.75;29.50;19.50
68841;PMS5003;55849;48.482;2.332;2022-12-10T09:08:57;34.75;26.00;18.00
68841;PMS5003;55849;48.482;2.332;2022-12-10T09:11:59;23.75;19.25;13.00
68841;PMS5003;55849;48.482;2.332;2022-12-10T09:15:00;31.50;23.50;15.75
68841;PMS5003;55849;48.482;2.332;2022-12-10T09:18:02;37.50;35.00;21.50
68841;PMS5003;55849;48.482;2.332;2022-12-10T09:21:04;29.50;23.25;14.50
68841;PMS5003;55849;48.482;2.332;2022-12-10T09:24:09;27.00;22.50;13.50
68841;PMS5003;55849;48.482;2.332;2022-12-10T09:27:11;29.00;25.50;18.00
68841;PMS5003;55849;48.482;2.332;2022-12-10T09:30:13;35.50;23.50;15.50
68841;PMS5003;55849;48.482;2.332;2022-12-10T09:33:14;14.50;14.00;8.00
68841;PMS5003;55849;48.482;2.332;2022-12-10T09:36:16;23.00;22.25;15.25
68841;PMS5003;55849;48.482;2.332;2022-12-10T09:39:20;19.50;17.50;13.00
68841;PMS5003;55849;48.482;2.332;2022-12-10T09:42:25;24.00;24.00;15.00
68841;PMS5003;55849;48.482;2.332;2022-12-10T09:45:40;28.25;18.75;9.25
68841;PMS5003;55849;48.482;2.332;2022-12-10T09:48:54;26.50;25.75;16.25
68841;PMS5003;55849;48.482;2.332;2022-12-10T09:52:03;26.00;19.75;10.50
68841;PMS5003;55849;48.482;2.332;2022-12-10T09:55:10;22.50;16.00;13.00
68841;PMS5003;55849;48.482;2.332;2022-12-10T09:58:16;38.00;26.50;15.75
68841;PMS5003;55849;48.482;2.332;2022-12-10T10:01:20;33.50;26.00;15.75
68841;PMS5003;55849;48.482;2.332;2022-12-10T10:04:26;12.50;9.75;5.00
68841;PMS5003;55849;48.482;2.332;2022-12-10T10:07:29;15.50;13.25;9.00
68841;PMS5003;55849;48.482;2.332;2022-12-10T10:10:35;10.00;9.00;6.00
68841;PMS5003;55849;48.482;2.332;2022-12-10T10:13:38;11.50;9.00;5.50
68841;PMS5003;55849;48.482;2.332;2022-12-10T10:16:42;14.00;12.00;7.50
68841;PMS5003;55849;48.482;2.332;2022-12-10T10:19:49;10.00;8.00;5.00
68841;PMS5003;55849;48.482;2.332;2022-12-10T10:22:51;9.25;5.00;4.00
68841;PMS5003;55849;48.482;2.332;2022-12-10T10:25:57;21.25;18.00;10.50
68841;PMS5003;55849;48.482;2.332;2022-12-10T10:28:59;28.00;22.00;13.00
68841;PMS5003;55849;48.482;2.332;2022-12-10T10:32:10;11.50;9.75;6.00
68841;PMS5003;55849;48.482;2.332;2022-12-10T10:35:21;30.00;24.00;16.50
68841;PMS5003;55849;48.482;2.332;2022-12-10T10:38:26;28.50;24.00;15.00
68841;PMS5003;55849;48.482;2.332;2022-12-10T10:41:30;16.50;14.00;9.00
68841;PMS5003;55849;48.482;2.332;2022-12-10T10:44:39;15.75;15.25;12.00
68841;PMS5003;55849;48.482;2.332;2022-12-10T10:47:43;13.50;13.00;7.00
68841;PMS5003;55849;48.482;2.332;2022-12-10T10:50:45;18.25;15.25;10.50
68841;PMS5003;55849;48.482;2.332;2022-12-10T10:53:49;22.00;18.00;12.25
68841;PMS5003;55849;48.482;2.332;2022-12-10T10:56:53;18.00;14.50;9.00
68841;PMS5003;55849;48.482;2.332;2022-12-10T11:00:01;15.75;11.00;7.00
68841;PMS5003;55849;48.482;2.332;2022-12-10T11:03:07;12.00;12.00;7.00
68841;PMS5003;55849;48.482;2.332;2022-12-10T11:06:09;17.25;13.75;7.00
68841;PMS5003;55849;48.482;2.332;2022-12-10T11:09:13;17.75;8.50;3.50
68841;PMS5003;55849;48.482;2.332;2022-12-10T11:12:35;15.50;12.75;9.00
68841;PMS5003;55849;48.482;2.332;2022-12-10T11:15:38;22.00;15.75;10.50
68841;PMS5003;55849;48.482;2.332;2022-12-10T11:18:41;19.25;14.50;9.75
68841;PMS5003;55849;48.482;2.332;2022-12-10T11:21:52;28.75;21.25;15.00
68841;PMS5003;55849;48.482;2.332;2022-12-10T11:24:53;14.50;11.50;8.00
68841;PMS5003;55849;48.482;2.332;2022-12-10T11:27:58;26.50;18.75;10.00
68841;PMS5003;55849;48.482;2.332;2022-12-10T11:31:10;19.50;13.50;8.00
68841;PMS5003;55849;48.482;2.332;2022-12-10T11:34:21;21.75;19.00;13.50
68841;PMS5003;55849;48.482;2.332;2022-12-10T11:37:36;16.75;12.25;9.00
68841;PMS5003;55849;48.482;2.332;2022-12-10T11:40:44;15.50;12.00;8.00
68841;PMS5003;55849;48.482;2.332;2022-12-10T11:43:54;11.75;10.25;5.25
68841;PMS5003;55849;48.482;2.332;2022-12-10T11:47:21;9.50;9.00;5.50
68841;PMS5003;55849;48.482;2.332;2022-12-10T11:50:34;16.25;9.50;7.00
68841;PMS5003;55849;48.482;2.332;2022-12-10T11:53:50;30.00;21.75;14.50
68841;PMS5003;55849;48.482;2.332;2022-12-10T11:57:02;32.75;27.00;19.50
68841;PMS5003;55849;48.482;2.332;2022-12-10T12:00:15;7.00;2.00;1.50
68841;PMS5003;55849;48.482;2.332;2022-12-10T12:03:33;33.50;26.50;15.75
68841;PMS5003;55849;48.482;2.332;2022-12-10T12:06:53;9.00;6.75;5.50
68841;PMS5003;55849;48.482;2.332;2022-12-10T12:10:16;10.00;10.00;5.00
68841;PMS5003;55849;48.482;2.332;2022-12-10T12:13:35;12.00;10.00;6.25
68841;PMS5003;55849;48.482;2.332;2022-12-10T12:16:44;18.00;13.50;6.50
68841;PMS5003;55849;48.482;2.332;2022-12-10T12:19:51;6.00;6.00;4.00
68841;PMS5003;55849;48.482;2.332;2022-12-10T12:22:56;9.25;8.50;4.00
68841;PMS5003;55849;48.482;2.332;2022-12-10T12:26:02;5.50;5.50;4.00
68841;PMS5003;55849;48.482;2.332;2022-12-10T12:29:11;8.50;8.50;4.00
68841;PMS5003;55849;48.482;2.332;2022-12-10T12:32:20;14.00;10.00;6.75
68841;PMS5003;55849;48.482;2.332;2022-12-10T12:35:28;11.75;9.50;6.50
68841;PMS5003;55849;48.482;2.332;2022-12-10T12:38:37;12.75;12.75;7.00
68841;PMS5003;55849;48.482;2.332;2022-12-10T12:41:44;13.00;10.00;8.50
68841;PMS5003;55849;48.482;2.332;2022-12-10T12:44:55;11.00;7.00;4.00
68841;PMS5003;55849;48.482;2.332;2022-12-10T12:48:09;9.50;8.50;5.00
68841;PMS5003;55849;48.482;2.332;2022-12-10T12:51:19;10.75;10.75;8.50
68841;PMS5003;55849;48.482;2.332;2022-12-10T12:54:26;14.50;11.50;8.00
68841;PMS5003;55849;48.482;2.332;2022-12-10T12:57:29;17.50;14.50;11.50
68841;PMS5003;55849;48.482;2.332;2022-12-10T13:00:41;17.75;15.25;9.50
68841;PMS5003;55849;48.482;2.332;2022-12-10T13:03:48;25.25;16.25;9.50
68841;PMS5003;55849;48.482;2.332;2022-12-10T13:10:45;9.75;7.50;5.50
68841;PMS5003;55849;48.482;2.332;2022-12-10T13:14:03;10.00;9.00;7.00
68841;PMS5003;55849;48.482;2.332;2022-12-10T13:17:26;8.00;3.25;3.00
68841;PMS5003;55849;48.482;2.332;2022-12-10T13:20:34;10.50;8.00;6.25
68841;PMS5003;55849;48.482;2.332;2022-12-10T13:23:46;6.25;6.25;5.50
68841;PMS5003;55849;48.482;2.332;2022-12-10T13:27:03;6.50;6.50;5.00
68841;PMS5003;55849;48.482;2.332;2022-12-10T13:30:32;12.50;9.75;6.75
68841;PMS5003;55849;48.482;2.332;2022-12-10T13:33:45;14.75;7.00;5.50
68841;PMS5003;55849;48.482;2.332;2022-12-10T13:40:41;15.50;10.75;6.00
68841;PMS5003;55849;48.482;2.332;2022-12-10T13:44:01;8.00;7.75;4.25
68841;PMS5003;55849;48.482;2.332;2022-12-10T13:47:24;8.50;6.75;4.00
68841;PMS5003;55849;48.482;2.332;2022-12-10T13:50:31;9.25;6.00;5.00
68841;PMS5003;55849;48.482;2.332;2022-12-10T13:53:39;15.25;6.75;4.00
68841;PMS5003;55849;48.482;2.332;2022-12-10T13:56:52;9.00;6.25;3.00
68841;PMS5003;55849;48.482;2.332;2022-12-10T14:00:00;5.50;5.50;4.00
68841;PMS5003;55849;48.482;2.332;2022-12-10T14:03:27;15.75;10.00;6.25
68841;PMS5003;55849;48.482;2.332;2022-12-10T14:06:52;11.25;9.50;6.50
68841;PMS5003;55849;48.482;2.332;2022-12-10T14:09:54;8.75;8.50;6.00
68841;PMS5003;55849;48.482;2.332;2022-12-10T14:13:00;5.00;5.00;2.50
68841;PMS5003;55849;48.482;2.332;2022-12-10T14:16:04;15.50;15.00;9.00
68841;PMS5003;55849;48.482;2.332;2022-12-10T14:19:13;26.00;13.25;8.00
68841;PMS5003;55849;48.482;2.332;2022-12-10T14:22:17;9.50;6.75;4.00
68841;PMS5003;55849;48.482;2.332;2022-12-10T14:25:22;17.00;9.75;6.75
68841;PMS5003;55849;48.482;2.332;2022-12-10T14:28:30;12.75;10.00;6.00
68841;PMS5003;55849;48.482;2.332;2022-12-10T14:31:34;13.50;12.00;9.00
68841;PMS5003;55849;48.482;2.332;2022-12-10T14:34:39;19.50;18.00;10.00
68841;PMS5003;55849;48.482;2.332;2022-12-10T14:37:42;17.50;14.50;9.25
68841;PMS5003;55849;48.482;2.332;2022-12-10T14:40:46;12.00;7.00;5.50
68841;PMS5003;55849;48.482;2.332;2022-12-10T14:43:50;14.00;9.00;5.50
68841;PMS5003;55849;48.482;2.332;2022-12-10T14:46:57;13.25;11.50;8.00
68841;PMS5003;55849;48.482;2.332;2022-12-10T14:50:06;23.25;21.00;15.00
68841;PMS5003;55849;48.482;2.332;2022-12-10T14:53:14;15.50;12.25;6.75
68841;PMS5003;55849;48.482;2.332;2022-12-10T14:56:19;26.25;21.25;9.25
68841;PMS5003;55849;48.482;2.332;2022-12-10T14:59:26;30.75;24.00;17.00
68841;PMS5003;55849;48.482;2.332;2022-12-10T15:02:33;7.00;7.00;4.00
68841;PMS5003;55849;48.482;2.332;2022-12-10T15:05:38;14.50;13.75;8.00
68841;PMS5003;55849;48.482;2.332;2022-12-10T15:08:39;13.25;10.25;7.25
68841;PMS5003;55849;48.482;2.332;2022-12-10T15:11:44;14.50;9.50;6.00
68841;PMS5003;55849;48.482;2.332;2022-12-10T15:14:47;10.50;8.50;5.50
68841;PMS5003;55849;48.482;2.332;2022-12-10T15:17:54;10.00;9.00;4.00
68841;PMS5003;55849;48.482;2.332;2022-12-10T15:21:04;13.75;9.75;6.25
68841;PMS5003;55849;48.482;2.332;2022-12-10T15:24:13;11.25;9.00;6.00
68841;PMS5003;55849;48.482;2.332;2022-12-10T15:27:18;6.50;6.00;3.00
68841;PMS5003;55849;48.482;2.332;2022-12-10T15:30:23;35.00;28.00;15.00
68841;PMS5003;55849;48.482;2.332;2022-12-10T15:33:30;6.00;4.00;3.00
68841;PMS5003;55849;48.482;2.332;2022-12-10T15:36:34;6.00;4.00;3.25
68841;PMS5003;55849;48.482;2.332;2022-12-10T15:39:42;8.50;5.50;3.00
68841;PMS5003;55849;48.482;2.332;2022-12-10T15:42:46;6.50;6.00;4.00
68841;PMS5003;55849;48.482;2.332;2022-12-10T15:45:49;13.00;11.50;7.00
68841;PMS5003;55849;48.482;2.332;2022-12-10T15:48:51;5.00;3.75;3.00
68841;PMS5003;55849;48.482;2.332;2022-12-10T15:51:53;8.00;8.00;5.00
68841;PMS5003;55849;48.482;2.332;2022-12-10T15:54:56;7.50;5.50;3.25
68841;PMS5003;55849;48.482;2.332;2022-12-10T15:57:58;4.00;4.00;3.00
68841;PMS5003;55849;48.482;2.332;2022-12-10T16:01:01;6.75;6.75;3.00
68841;PMS5003;55849;48.482;2.332;2022-12-10T16:04:03;7.50;6.50;3.75
68841;PMS5003;55849;48.482;2.332;2022-12-10T16:07:06;9.00;7.00;6.00
68841;PMS5003;55849;48.482;2.332;2022-12-10T16:10:09;14.00;9.50;9.00
68841;PMS5003;55849;48.482;2.332;2022-12-10T16:13:13;18.75;15.25;10.00
68841;PMS5003;55849;48.482;2.332;2022-12-10T16:16:18;11.50;9.75;7.00
68841;PMS5003;55849;48.482;2.332;2022-12-10T16:19:20;14.50;12.75;8.00
68841;PMS5003;55849;48.482;2.332;2022-12-10T16:22:21;23.75;21.50;12.75
68841;PMS5003;55849;48.482;2.332;2022-12-10T16:25:24;22.25;18.50;10.50
68841;PMS5003;55849;48.482;2.332;2022-12-10T16:28:28;21.75;17.75;13.50
68841;PMS5003;55849;48.482;2.332;2022-12-10T16:31:31;18.25;14.50;9.00
68841;PMS5003;55849;48.482;2.332;2022-12-10T16:34:33;15.75;15.75;9.75
68841;PMS5003;55849;48.482;2.332;2022-12-10T16:37:35;24.25;14.50;9.25
68841;PMS5003;55849;48.482;2.332;2022-12-10T16:40:37;9.25;9.25;6.00
68841;PMS5003;55849;48.482;2.332;2022-12-10T16:43:40;6.25;5.50;3.75
68841;PMS5003;55849;48.482;2.332;2022-12-10T16:46:43;9.25;9.00;4.00
68841;PMS5003;55849;48.482;2.332;2022-12-10T16:49:44;8.75;8.25;7.00
68841;PMS5003;55849;48.482;2.332;2022-12-10T16:52:46;16.00;9.50;6.25
68841;PMS5003;55849;48.482;2.332;2022-12-10T16:55:48;12.25;10.50;7.00
68841;PMS5003;55849;48.482;2.332;2022-12-10T16:58:50;19.50;17.00;12.75
68841;PMS5003;55849;48.482;2.332;2022-12-10T17:01:53;22.75;16.75;9.25
68841;PMS5003;55849;48.482;2.332;2022-12-10T17:04:54;16.00;11.00;9.00
68841;PMS5003;55849;48.482;2.332;2022-12-10T17:07:56;14.50;10.00;7.00
68841;PMS5003;55849;48.482;2.332;2022-12-10T17:10:58;13.00;12.00;7.00
68841;PMS5003;55849;48.482;2.332;2022-12-10T17:14:20;21.75;17.00;12.00
68841;PMS5003;55849;48.482;2.332;2022-12-10T17:17:25;19.00;18.75;12.75
68841;PMS5003;55849;48.482;2.332;2022-12-10T17:20:27;12.50;9.50;8.00
68841;PMS5003;55849;48.482;2.332;2022-12-10T17:23:29;11.75;10.25;7.00
68841;PMS5003;55849;48.482;2.332;2022-12-10T17:26:31;9.25;9.25;7.50
68841;PMS5003;55849;48.482;2.332;2022-12-10T17:29:36;14.50;11.50;7.00
68841;PMS5003;55849;48.482;2.332;2022-12-10T17:32:41;11.50;10.00;8.50
68841;PMS5003;55849;48.482;2.332;2022-12-10T17:35:43;20.50;14.25;9.50
68841;PMS5003;55849;48.482;2.332;2022-12-10T17:38:46;38.00;27.50;18.50
68841;PMS5003;55849;48.482;2.332;2022-12-10T17:41:47;20.00;12.25;9.50